createdAt,value
2023-05-14T00:01:31.084Z,20.29
2023-05-14T00:03:59.868Z,20.26
2023-05-14T00:06:26.732Z,20.22
2023-05-14T00:08:53.607Z,20.20
2023-05-14T00:11:21.286Z,20.17
2023-05-14T00:13:48.079Z,20.15
2023-05-14T00:16:14.961Z,20.11
2023-05-14T00:18:42.125Z,20.09
2023-05-14T00:21:08.922Z,20.05
2023-05-14T00:23:35.751Z,20.02
2023-05-14T00:26:02.532Z,20.00
2023-05-14T00:28:29.308Z,19.95
2023-05-14T00:30:57.077Z,19.93
2023-05-14T00:33:23.929Z,19.91
2023-05-14T00:35:51.533Z,19.89
2023-05-14T00:38:19.342Z,19.86
2023-05-14T00:43:20.094Z,19.82
2023-05-14T00:45:51.012Z,19.80
2023-05-14T00:48:18.368Z,19.78
2023-05-14T00:50:47.916Z,19.74
2023-05-14T00:53:14.912Z,19.72
2023-05-14T00:55:42.601Z,19.68
2023-05-14T00:58:14.012Z,19.64
2023-05-14T01:00:42.343Z,19.61
2023-05-14T01:03:09.854Z,19.55
2023-05-14T01:06:17.418Z,19.50
2023-05-14T01:09:32.286Z,19.44
2023-05-14T01:12:23.982Z,19.39
2023-05-14T01:15:17.898Z,19.35
2023-05-14T01:17:57.209Z,19.32
2023-05-14T01:20:26.702Z,19.30
2023-05-14T01:22:53.516Z,19.27
2023-05-14T01:25:20.426Z,19.24
2023-05-14T01:28:02.026Z,19.19
2023-05-14T01:30:36.744Z,19.17
2023-05-14T01:33:13.707Z,19.12
2023-05-14T01:35:40.984Z,19.09
2023-05-14T01:38:11.898Z,19.06
2023-05-14T01:40:39.209Z,19.03
2023-05-14T01:43:06.387Z,19.00
2023-05-14T01:45:36.554Z,18.96
2023-05-14T01:48:05.074Z,18.93
2023-05-14T01:50:31.937Z,18.90
2023-05-14T01:52:58.831Z,18.88
2023-05-14T01:55:25.872Z,18.84
2023-05-14T01:57:53.027Z,18.81
2023-05-14T02:00:22.250Z,18.76
2023-05-14T02:02:49.174Z,18.73
2023-05-14T02:05:16.030Z,18.68
2023-05-14T02:07:42.789Z,18.66
2023-05-14T02:10:10.024Z,18.63
2023-05-14T02:12:36.890Z,18.59
2023-05-14T02:15:04.655Z,18.56
2023-05-14T02:17:31.456Z,18.54
2023-05-14T02:19:58.338Z,18.50
2023-05-14T02:22:25.131Z,18.48
2023-05-14T02:24:51.943Z,18.45
2023-05-14T02:27:18.764Z,18.43
2023-05-14T02:29:45.580Z,18.41
2023-05-14T02:32:12.422Z,18.37
2023-05-14T02:34:39.253Z,18.34
2023-05-14T02:37:06.076Z,18.31
2023-05-14T02:39:32.963Z,18.30
2023-05-14T02:41:59.788Z,18.27
2023-05-14T02:44:26.595Z,18.24
2023-05-14T02:46:53.411Z,18.22
2023-05-14T02:49:20.204Z,18.21
2023-05-14T02:51:46.976Z,18.18
2023-05-14T02:54:13.734Z,18.16
2023-05-14T02:56:40.527Z,18.14
2023-05-14T02:59:07.343Z,18.11
2023-05-14T03:01:34.650Z,18.09
2023-05-14T03:04:01.906Z,18.06
2023-05-14T03:06:28.726Z,18.02
2023-05-14T03:08:55.533Z,18.00
2023-05-14T03:11:22.322Z,17.98
2023-05-14T03:13:49.162Z,17.94
2023-05-14T03:16:16.329Z,17.92
2023-05-14T03:18:43.197Z,17.89
2023-05-14T03:21:10.011Z,17.86
2023-05-14T03:23:36.786Z,17.84
2023-05-14T03:26:04.845Z,17.82
2023-05-14T03:28:31.682Z,17.80
2023-05-14T03:30:58.612Z,17.79
2023-05-14T03:33:25.667Z,17.75
2023-05-14T03:35:52.492Z,17.75
2023-05-14T03:38:19.266Z,17.74
2023-05-14T03:40:46.379Z,17.72
2023-05-14T03:43:13.145Z,17.71
2023-05-14T03:45:40.393Z,17.70
2023-05-14T03:48:07.286Z,17.68
2023-05-14T03:50:34.233Z,17.67
2023-05-14T03:53:01.057Z,17.65
2023-05-14T03:55:27.830Z,17.65
2023-05-14T03:57:54.623Z,17.63
2023-05-14T04:00:21.889Z,17.62
2023-05-14T04:02:48.865Z,17.61
2023-05-14T04:05:15.972Z,17.61
2023-05-14T04:07:42.741Z,17.59
2023-05-14T04:10:09.871Z,17.59
2023-05-14T04:12:36.695Z,17.58
2023-05-14T04:15:03.937Z,17.59
2023-05-14T04:17:30.782Z,17.58
2023-05-14T04:19:57.663Z,17.58
2023-05-14T04:22:24.425Z,17.59
2023-05-14T04:24:51.638Z,17.60
2023-05-14T04:27:22.115Z,17.60
2023-05-14T04:29:50.525Z,17.60
2023-05-14T04:32:18.019Z,17.61
2023-05-14T04:34:45.075Z,17.62
2023-05-14T04:37:14.400Z,17.63
2023-05-14T04:39:41.411Z,17.64
2023-05-14T04:42:08.316Z,17.65
2023-05-14T04:44:36.600Z,17.67
2023-05-14T04:47:06.988Z,17.67
2023-05-14T04:49:33.859Z,17.68
2023-05-14T04:52:01.477Z,17.71
2023-05-14T04:54:28.312Z,17.74
2023-05-14T04:56:55.870Z,17.77
2023-05-14T04:59:22.812Z,17.81
2023-05-14T05:01:49.823Z,17.85
2023-05-14T05:04:16.702Z,17.88
2023-05-14T05:06:43.553Z,17.92
2023-05-14T05:09:10.373Z,17.97
2023-05-14T05:11:37.829Z,18.01
2023-05-14T05:14:04.672Z,18.04
2023-05-14T05:16:31.528Z,18.10
2023-05-14T05:18:58.349Z,18.14
2023-05-14T05:21:25.569Z,18.19
2023-05-14T05:23:52.345Z,18.25
2023-05-14T05:26:19.423Z,18.30
2023-05-14T05:28:46.236Z,18.37
2023-05-14T05:31:13.166Z,18.43
2023-05-14T05:33:40.113Z,18.51
2023-05-14T05:36:07.190Z,18.57
2023-05-14T05:38:33.976Z,18.63
2023-05-14T05:41:00.872Z,18.72
2023-05-14T05:43:28.589Z,18.78
2023-05-14T05:45:55.436Z,18.83
2023-05-14T05:48:22.257Z,18.85
2023-05-14T05:50:50.243Z,18.91
2023-05-14T05:53:17.056Z,18.90
2023-05-14T05:55:44.047Z,18.93
2023-05-14T05:58:11.102Z,18.97
2023-05-14T06:00:38.038Z,19.04
2023-05-14T06:03:04.846Z,19.15
2023-05-14T06:05:31.718Z,19.28
2023-05-14T06:07:58.558Z,19.36
2023-05-14T06:10:25.641Z,19.42
2023-05-14T06:12:52.589Z,19.49
2023-05-14T06:15:19.505Z,19.56
2023-05-14T06:17:46.402Z,19.63
2023-05-14T06:20:13.351Z,19.70
2023-05-14T06:22:40.260Z,19.77
2023-05-14T06:25:08.013Z,19.85
2023-05-14T06:27:34.829Z,19.92
2023-05-14T06:30:01.576Z,20.00
2023-05-14T06:32:28.421Z,20.07
2023-05-14T06:34:55.228Z,20.13
2023-05-14T06:37:22.065Z,20.19
2023-05-14T06:39:50.368Z,20.25
2023-05-14T06:42:17.914Z,20.32
2023-05-14T06:44:45.221Z,20.36
2023-05-14T06:47:12.302Z,20.41
2023-05-14T06:49:39.535Z,20.48
2023-05-14T06:52:06.772Z,20.53
2023-05-14T06:54:33.616Z,20.55
2023-05-14T06:57:00.445Z,20.59
2023-05-14T06:59:27.304Z,20.66
2023-05-14T07:01:54.208Z,20.72
2023-05-14T07:04:21.090Z,20.81
2023-05-14T07:06:47.931Z,20.90
2023-05-14T07:09:16.138Z,21.00
2023-05-14T07:11:42.958Z,21.07
2023-05-14T07:14:09.761Z,21.15
2023-05-14T07:16:36.993Z,21.22
2023-05-14T07:19:03.820Z,21.30
2023-05-14T07:21:31.702Z,21.38
2023-05-14T07:23:58.537Z,21.44
2023-05-14T07:26:26.294Z,21.52
2023-05-14T07:28:53.118Z,21.59
2023-05-14T07:31:19.994Z,21.67
2023-05-14T07:33:46.857Z,21.76
2023-05-14T07:36:13.668Z,21.84
2023-05-14T07:38:40.433Z,21.93
2023-05-14T07:41:07.758Z,22.00
2023-05-14T07:43:34.533Z,22.10
2023-05-14T07:46:01.440Z,22.20
2023-05-14T07:48:28.310Z,22.30
2023-05-14T07:50:55.215Z,22.38
2023-05-14T07:53:22.168Z,22.45
2023-05-14T07:55:49.420Z,22.50
2023-05-14T07:58:16.615Z,22.56
2023-05-14T08:00:43.419Z,22.61
2023-05-14T08:03:10.310Z,22.67
2023-05-14T08:05:37.238Z,22.75
2023-05-14T08:08:04.150Z,22.82
2023-05-14T08:10:31.229Z,22.87
2023-05-14T08:12:58.062Z,22.92
2023-05-14T08:15:27.578Z,22.98
2023-05-14T08:17:54.950Z,23.02
2023-05-14T08:20:22.493Z,23.07
2023-05-14T08:22:49.496Z,23.13
2023-05-14T08:25:16.326Z,23.18
2023-05-14T08:27:43.139Z,23.23
2023-05-14T08:30:10.485Z,23.26
2023-05-14T08:32:38.457Z,23.30
2023-05-14T08:35:06.029Z,23.33
2023-05-14T08:37:32.841Z,23.37
2023-05-14T08:39:59.828Z,23.39
2023-05-14T08:42:27.262Z,23.45
2023-05-14T08:45:01.535Z,23.49
2023-05-14T08:47:30.610Z,23.56
2023-05-14T08:50:08.257Z,23.64
2023-05-14T08:52:35.974Z,23.67
2023-05-14T08:55:06.875Z,23.71
2023-05-14T08:57:34.669Z,23.75
2023-05-14T09:00:08.281Z,23.78
2023-05-14T09:02:36.769Z,23.82
2023-05-14T09:05:04.294Z,23.87
2023-05-14T09:07:31.471Z,23.94
2023-05-14T09:09:58.960Z,23.98
2023-05-14T09:12:26.157Z,24.06
2023-05-14T09:14:52.981Z,24.13
2023-05-14T09:17:20.139Z,24.16
2023-05-14T09:19:49.202Z,24.17
2023-05-14T09:22:18.068Z,24.19
2023-05-14T09:24:46.156Z,24.24
2023-05-14T09:27:20.656Z,24.28
2023-05-14T09:29:48.233Z,24.34
2023-05-14T09:32:15.046Z,24.38
2023-05-14T09:34:42.217Z,24.42
2023-05-14T09:37:10.035Z,24.46
2023-05-14T09:39:38.588Z,24.46
2023-05-14T09:42:05.798Z,24.51
2023-05-14T09:44:32.700Z,24.60
2023-05-14T09:46:59.572Z,24.69
2023-05-14T09:49:26.395Z,24.76
2023-05-14T09:51:53.446Z,24.82
2023-05-14T09:54:20.315Z,24.89
2023-05-14T09:56:47.177Z,24.95
2023-05-14T09:59:14.048Z,25.03
2023-05-14T10:01:43.588Z,25.06
2023-05-14T10:04:11.913Z,25.11
2023-05-14T10:06:40.099Z,25.15
2023-05-14T10:09:13.925Z,25.21
2023-05-14T10:11:45.299Z,25.25
2023-05-14T10:14:20.787Z,25.30
2023-05-14T10:16:50.948Z,25.36
2023-05-14T10:19:21.047Z,25.37
2023-05-14T10:22:05.790Z,25.35
2023-05-14T10:24:33.331Z,25.32
2023-05-14T10:27:00.764Z,25.23
2023-05-14T10:29:38.055Z,25.13
2023-05-14T10:32:08.178Z,25.08
2023-05-14T10:34:46.317Z,25.05
2023-05-14T10:37:27.206Z,25.05
2023-05-14T10:40:02.862Z,25.04
2023-05-14T10:42:40.918Z,25.05
2023-05-14T10:45:13.188Z,25.08
2023-05-14T10:47:43.498Z,25.12
2023-05-14T10:50:13.131Z,25.18
2023-05-14T10:52:45.238Z,25.26
2023-05-14T10:55:16.809Z,25.29
2023-05-14T10:57:47.084Z,25.33
2023-05-14T11:00:15.034Z,25.36
2023-05-14T11:02:44.223Z,25.42
2023-05-14T11:05:17.557Z,25.48
2023-05-14T11:07:47.982Z,25.51
2023-05-14T11:10:17.466Z,25.52
2023-05-14T11:12:49.716Z,25.53
2023-05-14T11:15:18.977Z,25.55
2023-05-14T11:17:47.133Z,25.59
2023-05-14T11:20:14.794Z,25.65
2023-05-14T11:22:43.030Z,25.66
2023-05-14T11:25:14.277Z,25.66
2023-05-14T11:27:43.331Z,25.63
2023-05-14T11:30:18.858Z,25.61
2023-05-14T11:32:48.476Z,25.57
2023-05-14T11:35:16.737Z,25.61
2023-05-14T11:37:50.192Z,25.68
2023-05-14T11:40:17.334Z,25.72
2023-05-14T11:42:44.440Z,25.78
2023-05-14T11:45:12.814Z,25.82
2023-05-14T11:47:42.574Z,25.89
2023-05-14T11:50:10.216Z,25.93
2023-05-14T11:52:41.614Z,25.99
2023-05-14T11:55:14.550Z,26.05
2023-05-14T11:57:41.411Z,26.11
2023-05-14T12:00:14.387Z,26.20
2023-05-14T12:02:41.355Z,26.26
2023-05-14T12:05:09.076Z,26.34
2023-05-14T12:07:36.317Z,26.43
2023-05-14T12:10:04.290Z,26.51
2023-05-14T12:12:36.537Z,26.59
2023-05-14T12:15:14.845Z,26.69
2023-05-14T12:17:41.924Z,26.73
2023-05-14T12:20:10.960Z,26.78
2023-05-14T12:22:37.800Z,26.89
2023-05-14T12:25:09.890Z,26.99
2023-05-14T12:27:38.009Z,27.13
2023-05-14T12:30:20.705Z,27.21
2023-05-14T12:32:51.696Z,27.28
2023-05-14T12:35:19.048Z,27.35
2023-05-14T12:37:45.992Z,27.45
2023-05-14T12:40:13.146Z,27.52
2023-05-14T12:42:40.177Z,27.56
2023-05-14T12:45:08.463Z,27.62
2023-05-14T12:47:36.785Z,27.68
2023-05-14T12:50:04.675Z,27.76
2023-05-14T12:55:01.511Z,27.87
2023-05-14T12:57:29.712Z,27.95
2023-05-14T12:59:57.752Z,28.04
2023-05-14T13:02:24.574Z,28.18
2023-05-14T13:04:51.340Z,28.30
2023-05-14T13:07:18.419Z,28.29
2023-05-14T13:09:46.811Z,28.17
2023-05-14T13:12:13.638Z,27.93
2023-05-14T13:14:40.435Z,27.67
2023-05-14T13:17:08.123Z,27.42
2023-05-14T13:19:35.149Z,27.19
2023-05-14T13:22:01.954Z,26.95
2023-05-14T13:24:28.762Z,26.74
2023-05-14T13:26:55.572Z,26.55
2023-05-14T13:29:22.377Z,26.42
2023-05-14T13:31:49.190Z,26.40
2023-05-14T13:34:15.995Z,26.43
2023-05-14T13:36:43.518Z,26.51
2023-05-14T13:39:13.109Z,26.61
2023-05-14T13:41:41.130Z,26.73
2023-05-14T13:44:07.910Z,26.82
2023-05-14T13:46:34.853Z,26.86
2023-05-14T13:49:01.774Z,26.89
2023-05-14T13:51:28.556Z,26.94
2023-05-14T13:56:27.055Z,26.95
2023-05-14T13:58:54.159Z,26.93
2023-05-14T14:01:21.776Z,26.93
2023-05-14T14:03:49.121Z,26.93
2023-05-14T14:06:15.911Z,26.97
2023-05-14T14:08:42.708Z,27.02
2023-05-14T14:11:09.548Z,27.06
2023-05-14T14:13:37.235Z,27.09
2023-05-14T14:16:04.340Z,27.09
2023-05-14T14:18:31.146Z,27.04
2023-05-14T14:20:58.321Z,26.99
2023-05-14T14:23:25.148Z,26.95
2023-05-14T14:25:51.928Z,26.90
2023-05-14T14:28:19.057Z,26.83
2023-05-14T14:30:45.878Z,26.79
2023-05-14T14:33:12.694Z,26.76
2023-05-14T14:35:39.675Z,26.73
2023-05-14T14:38:08.774Z,26.72
2023-05-14T14:40:35.644Z,26.72
2023-05-14T14:43:02.504Z,26.72
2023-05-14T14:45:29.408Z,26.72
2023-05-14T14:48:25.297Z,26.74
2023-05-14T14:50:52.737Z,26.79
2023-05-14T14:53:21.318Z,26.82
2023-05-14T14:55:51.701Z,26.83
2023-05-14T14:58:19.863Z,26.86
2023-05-14T15:00:47.468Z,26.88
2023-05-14T15:03:15.248Z,26.88
2023-05-14T15:05:42.365Z,26.89
2023-05-14T15:08:09.299Z,26.90
2023-05-14T15:10:41.074Z,26.92
2023-05-14T15:13:10.251Z,26.90
2023-05-14T15:15:37.416Z,26.87
2023-05-14T15:18:04.875Z,26.85
2023-05-14T15:20:34.354Z,26.83
2023-05-14T15:23:01.233Z,26.79
2023-05-14T15:25:28.403Z,26.78
2023-05-14T15:27:55.229Z,26.76
2023-05-14T15:30:23.136Z,26.76
2023-05-14T15:32:49.961Z,26.73
2023-05-14T15:35:16.996Z,26.70
2023-05-14T15:37:45.058Z,26.72
2023-05-14T15:40:12.560Z,26.72
2023-05-14T15:42:42.632Z,26.73
2023-05-14T15:45:12.269Z,26.74
2023-05-14T15:47:40.081Z,26.75
2023-05-14T15:50:08.203Z,26.76
2023-05-14T15:52:36.165Z,26.76
2023-05-14T15:55:04.651Z,26.74
2023-05-14T15:57:31.670Z,26.73
2023-05-14T15:59:58.512Z,26.71
2023-05-14T16:02:25.721Z,26.68
2023-05-14T16:04:52.690Z,26.65
2023-05-14T16:07:19.469Z,26.62
2023-05-14T16:09:46.271Z,26.61
2023-05-14T16:12:14.209Z,26.57
2023-05-14T16:14:45.158Z,26.56
2023-05-14T16:17:12.090Z,26.54
2023-05-14T16:19:39.572Z,26.52
2023-05-14T16:22:15.086Z,26.51
2023-05-14T16:24:42.091Z,26.48
2023-05-14T16:27:08.882Z,26.46
2023-05-14T16:29:35.621Z,26.43
2023-05-14T16:32:05.976Z,26.41
2023-05-14T16:34:32.798Z,26.39
2023-05-14T16:36:59.876Z,26.36
2023-05-14T16:39:26.859Z,26.34
2023-05-14T16:41:53.621Z,26.33
2023-05-14T16:44:20.355Z,26.31
2023-05-14T16:46:48.010Z,26.30
2023-05-14T16:49:14.832Z,26.29
2023-05-14T16:51:45.112Z,26.29
2023-05-14T16:54:14.971Z,26.28
2023-05-14T16:56:42.068Z,26.29
2023-05-14T16:59:08.833Z,26.28
2023-05-14T17:01:36.137Z,26.28
2023-05-14T17:04:02.998Z,26.31
2023-05-14T17:06:29.818Z,26.32
2023-05-14T17:08:56.579Z,26.34
2023-05-14T17:11:23.365Z,26.35
2023-05-14T17:13:50.143Z,26.37
2023-05-14T17:16:17.119Z,26.36
2023-05-14T17:18:46.878Z,26.32
2023-05-14T17:21:13.777Z,26.30
2023-05-14T17:23:42.292Z,26.30
2023-05-14T17:26:09.245Z,26.29
2023-05-14T17:28:36.054Z,26.25
2023-05-14T17:31:02.838Z,26.23
2023-05-14T17:33:29.706Z,26.18
2023-05-14T17:35:56.502Z,26.16
2023-05-14T17:38:24.800Z,26.12
2023-05-14T17:40:51.553Z,26.06
2023-05-14T17:43:18.706Z,26.04
2023-05-14T17:45:53.991Z,26.00
2023-05-14T17:48:23.042Z,25.94
2023-05-14T17:50:51.602Z,25.91
2023-05-14T17:53:18.513Z,25.90
2023-05-14T17:55:45.396Z,25.89
2023-05-14T17:58:15.157Z,25.87
2023-05-14T18:00:42.600Z,25.80
2023-05-14T18:03:10.323Z,25.77
2023-05-14T18:05:37.405Z,25.72
2023-05-14T18:08:04.257Z,25.69
2023-05-14T18:10:31.058Z,25.67
2023-05-14T18:12:57.879Z,25.64
2023-05-14T18:15:25.736Z,25.62
2023-05-14T18:17:53.085Z,25.60
2023-05-14T18:20:20.088Z,25.56
2023-05-14T18:22:46.874Z,25.53
2023-05-14T18:25:13.789Z,25.49
2023-05-14T18:27:44.403Z,25.45
2023-05-14T18:30:14.392Z,25.40
2023-05-14T18:32:43.584Z,25.35
2023-05-14T18:35:11.566Z,25.30
2023-05-14T18:37:38.505Z,25.24
2023-05-14T18:40:06.897Z,25.19
2023-05-14T18:42:37.066Z,25.13
2023-05-14T18:45:04.526Z,25.08
2023-05-14T18:47:32.671Z,25.02
2023-05-14T18:50:03.112Z,24.94
2023-05-14T18:52:29.930Z,24.89
2023-05-14T18:54:56.736Z,24.82
2023-05-14T18:57:23.578Z,24.76
2023-05-14T18:59:50.384Z,24.70
2023-05-14T19:02:17.220Z,24.64
2023-05-14T19:04:52.385Z,24.57
2023-05-14T19:07:29.729Z,24.50
2023-05-14T19:09:56.495Z,24.43
2023-05-14T19:12:23.304Z,24.37
2023-05-14T19:14:50.044Z,24.31
2023-05-14T19:17:18.557Z,24.24
2023-05-14T19:19:47.250Z,24.18
2023-05-14T19:22:14.078Z,24.12
2023-05-14T19:24:40.973Z,24.05
2023-05-14T19:27:08.491Z,24.00
2023-05-14T19:29:39.360Z,23.95
2023-05-14T19:32:06.895Z,23.89
2023-05-14T19:34:33.724Z,23.84
2023-05-14T19:37:00.590Z,23.79
2023-05-14T19:39:27.869Z,23.74
2023-05-14T19:41:54.668Z,23.68
2023-05-14T19:44:21.445Z,23.62
2023-05-14T19:46:48.287Z,23.56
2023-05-14T19:49:15.123Z,23.48
2023-05-14T19:51:41.886Z,23.43
2023-05-14T19:54:09.184Z,23.38
2023-05-14T19:56:36.016Z,23.32
2023-05-14T19:59:02.815Z,23.27
2023-05-14T20:01:29.669Z,23.21
2023-05-14T20:03:57.385Z,23.15
2023-05-14T20:06:24.161Z,23.11
2023-05-14T20:08:51.461Z,23.06
2023-05-14T20:11:19.490Z,23.01
2023-05-14T20:13:46.387Z,22.96
2023-05-14T20:16:16.569Z,22.91
2023-05-14T20:18:44.423Z,22.87
2023-05-14T20:21:11.534Z,22.82
2023-05-14T20:23:38.366Z,22.77
2023-05-14T20:26:05.132Z,22.72
2023-05-14T20:28:31.943Z,22.67
2023-05-14T20:31:00.082Z,22.63
2023-05-14T20:33:28.922Z,22.59
2023-05-14T20:35:55.820Z,22.53
2023-05-14T20:38:23.418Z,22.50
2023-05-14T20:40:50.383Z,22.45
2023-05-14T20:43:17.226Z,22.40
2023-05-14T20:45:44.020Z,22.36
2023-05-14T20:48:12.739Z,22.30
2023-05-14T20:50:39.491Z,22.26
2023-05-14T20:53:06.300Z,22.22
2023-05-14T20:55:33.209Z,22.17
2023-05-14T20:58:00.055Z,22.13
2023-05-14T21:00:26.900Z,22.10
2023-05-14T21:02:53.749Z,22.06
2023-05-14T21:05:20.914Z,22.01
2023-05-14T21:07:48.041Z,21.98
2023-05-14T21:10:14.888Z,21.95
2023-05-14T21:12:42.725Z,21.90
2023-05-14T21:15:10.883Z,21.84
2023-05-14T21:17:37.799Z,21.80
2023-05-14T21:20:04.986Z,21.76
2023-05-14T21:22:31.761Z,21.73
2023-05-14T21:24:58.583Z,21.69
2023-05-14T21:27:26.512Z,21.65
2023-05-14T21:29:53.332Z,21.62
2023-05-14T21:32:22.133Z,21.59
2023-05-14T21:34:49.200Z,21.55
2023-05-14T21:37:16.070Z,21.52
2023-05-14T21:39:42.854Z,21.48
2023-05-14T21:42:09.867Z,21.46
2023-05-14T21:44:36.708Z,21.41
2023-05-14T21:47:04.282Z,21.38
2023-05-14T21:49:31.073Z,21.35
2023-05-14T21:51:57.872Z,21.32
2023-05-14T21:54:24.646Z,21.26
2023-05-14T21:56:51.456Z,21.24
2023-05-14T21:59:18.252Z,21.21
2023-05-14T22:02:05.510Z,21.17
2023-05-14T22:04:31.904Z,21.13
2023-05-14T22:06:58.734Z,21.09
2023-05-14T22:09:25.834Z,21.06
2023-05-14T22:11:52.657Z,21.03
2023-05-14T22:14:19.449Z,21.00
2023-05-14T22:16:46.318Z,20.97
2023-05-14T22:19:13.292Z,20.92
2023-05-14T22:21:40.192Z,20.89
2023-05-14T22:24:07.467Z,20.84
2023-05-14T22:26:35.082Z,20.82
2023-05-14T22:29:01.941Z,20.78
2023-05-14T22:31:29.242Z,20.75
2023-05-14T22:33:56.133Z,20.72
2023-05-14T22:36:23.121Z,20.68
2023-05-14T22:38:49.934Z,20.63
2023-05-14T22:41:17.609Z,20.61
2023-05-14T22:43:44.476Z,20.56
2023-05-14T22:46:11.318Z,20.52
2023-05-14T22:48:38.156Z,20.48
2023-05-14T22:51:05.173Z,20.46
2023-05-14T22:53:31.968Z,20.43
2023-05-14T22:55:58.818Z,20.41
2023-05-14T22:58:25.563Z,20.39
2023-05-14T23:00:52.447Z,20.36
2023-05-14T23:03:19.215Z,20.35
2023-05-14T23:05:46.010Z,20.33
2023-05-14T23:08:12.808Z,20.32
2023-05-14T23:10:39.605Z,20.29
2023-05-14T23:13:06.375Z,20.29
2023-05-14T23:15:33.285Z,20.27
2023-05-14T23:18:00.282Z,20.25
2023-05-14T23:20:27.210Z,20.23
2023-05-14T23:22:54.117Z,20.23
2023-05-14T23:25:20.973Z,20.20
2023-05-14T23:27:48.166Z,20.16
2023-05-14T23:30:14.985Z,20.13
2023-05-14T23:32:41.775Z,20.11
2023-05-14T23:35:08.977Z,20.09
2023-05-14T23:37:41.500Z,20.05
2023-05-14T23:40:09.588Z,20.02
2023-05-14T23:42:36.384Z,20.00
2023-05-14T23:45:03.388Z,19.96
2023-05-14T23:47:30.325Z,19.94
2023-05-14T23:49:57.294Z,19.92
2023-05-14T23:52:24.076Z,19.87
2023-05-14T23:54:50.815Z,19.84
2023-05-14T23:57:17.612Z,19.81
2023-05-14T23:59:44.387Z,19.78
